sensor_id;sensor_type;location;lat;lon;timestamp;P1;durP1;ratioP1;P2;durP2;ratioP2
36817;SDS011;22761;51.542;16.450;2022-11-11T00:02:35;9.00;;;2.53;;
36817;SDS011;22761;51.542;16.450;2022-11-11T00:05:20;7.13;;;2.50;;
36817;SDS011;22761;51.542;16.450;2022-11-11T00:08:06;7.50;;;2.63;;
36817;SDS011;22761;51.542;16.450;2022-11-11T00:10:52;7.57;;;2.50;;
36817;SDS011;22761;51.542;16.450;2022-11-11T00:13:37;6.83;;;2.80;;
36817;SDS011;22761;51.542;16.450;2022-11-11T00:16:24;10.17;;;2.60;;
36817;SDS011;22761;51.542;16.450;2022-11-11T00:19:11;6.33;;;2.23;;
36817;SDS011;22761;51.542;16.450;2022-11-11T00:22:19;9.97;;;2.77;;
36817;SDS011;22761;51.542;16.450;2022-11-11T00:25:24;10.63;;;2.50;;
36817;SDS011;22761;51.542;16.450;2022-11-11T00:28:10;7.07;;;2.37;;
36817;SDS011;22761;51.542;16.450;2022-11-11T00:31:07;8.30;;;2.50;;
36817;SDS011;22761;51.542;16.450;2022-11-11T00:33:52;9.13;;;2.80;;
36817;SDS011;22761;51.542;16.450;2022-11-11T00:36:37;9.83;;;3.23;;
36817;SDS011;22761;51.542;16.450;2022-11-11T00:39:23;7.23;;;2.50;;
36817;SDS011;22761;51.542;16.450;2022-11-11T00:42:08;8.27;;;2.40;;
36817;SDS011;22761;51.542;16.450;2022-11-11T00:44:54;7.90;;;2.07;;
36817;SDS011;22761;51.542;16.450;2022-11-11T00:47:39;6.03;;;2.50;;
36817;SDS011;22761;51.542;16.450;2022-11-11T00:50:43;9.47;;;2.33;;
36817;SDS011;22761;51.542;16.450;2022-11-11T00:56:29;8.03;;;2.53;;
36817;SDS011;22761;51.542;16.450;2022-11-11T00:59:14;6.90;;;2.30;;
36817;SDS011;22761;51.542;16.450;2022-11-11T01:02:00;10.63;;;2.13;;
36817;SDS011;22761;51.542;16.450;2022-11-11T01:04:45;6.10;;;2.07;;
36817;SDS011;22761;51.542;16.450;2022-11-11T01:07:31;6.77;;;2.23;;
36817;SDS011;22761;51.542;16.450;2022-11-11T01:10:17;7.60;;;2.13;;
36817;SDS011;22761;51.542;16.450;2022-11-11T01:13:22;5.90;;;1.60;;
36817;SDS011;22761;51.542;16.450;2022-11-11T01:16:19;8.17;;;2.30;;
36817;SDS011;22761;51.542;16.450;2022-11-11T01:19:07;6.97;;;2.00;;
36817;SDS011;22761;51.542;16.450;2022-11-11T01:21:52;7.17;;;2.20;;
36817;SDS011;22761;51.542;16.450;2022-11-11T01:24:38;6.37;;;2.23;;
36817;SDS011;22761;51.542;16.450;2022-11-11T01:27:24;8.20;;;2.40;;
36817;SDS011;22761;51.542;16.450;2022-11-11T01:30:09;6.27;;;2.03;;
36817;SDS011;22761;51.542;16.450;2022-11-11T01:32:57;7.23;;;2.33;;
36817;SDS011;22761;51.542;16.450;2022-11-11T01:35:42;6.20;;;2.60;;
36817;SDS011;22761;51.542;16.450;2022-11-11T01:38:27;6.67;;;1.80;;
36817;SDS011;22761;51.542;16.450;2022-11-11T01:41:14;8.63;;;2.27;;
36817;SDS011;22761;51.542;16.450;2022-11-11T01:44:19;6.90;;;2.20;;
36817;SDS011;22761;51.542;16.450;2022-11-11T01:47:24;11.70;;;2.93;;
36817;SDS011;22761;51.542;16.450;2022-11-11T01:50:12;6.10;;;2.33;;
36817;SDS011;22761;51.542;16.450;2022-11-11T01:52:57;9.17;;;2.17;;
36817;SDS011;22761;51.542;16.450;2022-11-11T01:55:43;7.63;;;2.93;;
36817;SDS011;22761;51.542;16.450;2022-11-11T01:58:28;6.70;;;2.13;;
36817;SDS011;22761;51.542;16.450;2022-11-11T02:01:14;7.17;;;2.40;;
36817;SDS011;22761;51.542;16.450;2022-11-11T02:04:01;7.57;;;2.30;;
36817;SDS011;22761;51.542;16.450;2022-11-11T02:07:07;5.93;;;2.20;;
36817;SDS011;22761;51.542;16.450;2022-11-11T02:09:53;9.17;;;2.27;;
36817;SDS011;22761;51.542;16.450;2022-11-11T02:12:41;6.93;;;2.00;;
36817;SDS011;22761;51.542;16.450;2022-11-11T02:15:46;6.70;;;2.13;;
36817;SDS011;22761;51.542;16.450;2022-11-11T02:18:33;8.30;;;2.30;;
36817;SDS011;22761;51.542;16.450;2022-11-11T02:21:35;6.97;;;2.37;;
36817;SDS011;22761;51.542;16.450;2022-11-11T02:24:28;7.07;;;2.00;;
36817;SDS011;22761;51.542;16.450;2022-11-11T02:27:15;8.13;;;2.30;;
36817;SDS011;22761;51.542;16.450;2022-11-11T02:30:03;8.33;;;2.10;;
36817;SDS011;22761;51.542;16.450;2022-11-11T02:32:54;6.60;;;2.20;;
36817;SDS011;22761;51.542;16.450;2022-11-11T02:35:41;6.20;;;1.93;;
36817;SDS011;22761;51.542;16.450;2022-11-11T02:38:32;5.73;;;2.20;;
36817;SDS011;22761;51.542;16.450;2022-11-11T02:41:17;5.37;;;2.23;;
36817;SDS011;22761;51.542;16.450;2022-11-11T02:44:22;8.83;;;2.40;;
36817;SDS011;22761;51.542;16.450;2022-11-11T02:47:08;7.47;;;2.10;;
36817;SDS011;22761;51.542;16.450;2022-11-11T02:49:54;7.50;;;2.37;;
36817;SDS011;22761;51.542;16.450;2022-11-11T02:52:39;9.83;;;3.13;;
36817;SDS011;22761;51.542;16.450;2022-11-11T02:55:25;6.10;;;2.30;;
36817;SDS011;22761;51.542;16.450;2022-11-11T02:58:10;6.30;;;2.40;;
36817;SDS011;22761;51.542;16.450;2022-11-11T03:00:57;6.47;;;2.70;;
36817;SDS011;22761;51.542;16.450;2022-11-11T03:03:43;6.13;;;2.20;;
36817;SDS011;22761;51.542;16.450;2022-11-11T03:06:28;8.23;;;2.40;;
36817;SDS011;22761;51.542;16.450;2022-11-11T03:09:13;6.13;;;2.20;;
36817;SDS011;22761;51.542;16.450;2022-11-11T03:11:59;7.57;;;2.40;;
36817;SDS011;22761;51.542;16.450;2022-11-11T03:14:44;8.83;;;2.43;;
36817;SDS011;22761;51.542;16.450;2022-11-11T03:17:29;8.23;;;2.70;;
36817;SDS011;22761;51.542;16.450;2022-11-11T03:20:24;5.53;;;2.40;;
36817;SDS011;22761;51.542;16.450;2022-11-11T03:23:29;7.67;;;2.73;;
36817;SDS011;22761;51.542;16.450;2022-11-11T03:26:15;7.80;;;2.30;;
36817;SDS011;22761;51.542;16.450;2022-11-11T03:29:00;8.50;;;3.00;;
36817;SDS011;22761;51.542;16.450;2022-11-11T03:31:45;10.50;;;2.93;;
36817;SDS011;22761;51.542;16.450;2022-11-11T03:34:31;7.83;;;2.67;;
36817;SDS011;22761;51.542;16.450;2022-11-11T03:37:17;4.80;;;2.20;;
36817;SDS011;22761;51.542;16.450;2022-11-11T03:40:21;7.93;;;2.23;;
36817;SDS011;22761;51.542;16.450;2022-11-11T03:43:07;8.63;;;2.23;;
36817;SDS011;22761;51.542;16.450;2022-11-11T03:45:53;8.17;;;2.17;;
36817;SDS011;22761;51.542;16.450;2022-11-11T03:48:40;6.90;;;2.20;;
36817;SDS011;22761;51.542;16.450;2022-11-11T03:51:26;7.57;;;2.37;;
36817;SDS011;22761;51.542;16.450;2022-11-11T03:54:11;6.60;;;2.37;;
36817;SDS011;22761;51.542;16.450;2022-11-11T03:56:56;8.27;;;2.20;;
36817;SDS011;22761;51.542;16.450;2022-11-11T04:00:01;4.77;;;2.27;;
36817;SDS011;22761;51.542;16.450;2022-11-11T04:02:47;8.37;;;2.37;;
36817;SDS011;22761;51.542;16.450;2022-11-11T04:05:51;9.47;;;2.53;;
36817;SDS011;22761;51.542;16.450;2022-11-11T04:08:55;5.10;;;2.17;;
36817;SDS011;22761;51.542;16.450;2022-11-11T04:11:59;7.67;;;2.23;;
36817;SDS011;22761;51.542;16.450;2022-11-11T04:14:45;4.60;;;2.27;;
36817;SDS011;22761;51.542;16.450;2022-11-11T04:17:49;6.47;;;2.20;;
36817;SDS011;22761;51.542;16.450;2022-11-11T04:20:35;4.13;;;1.90;;
36817;SDS011;22761;51.542;16.450;2022-11-11T04:23:39;3.87;;;1.60;;
36817;SDS011;22761;51.542;16.450;2022-11-11T04:26:24;12.40;;;2.70;;
36817;SDS011;22761;51.542;16.450;2022-11-11T04:29:09;4.20;;;1.90;;
36817;SDS011;22761;51.542;16.450;2022-11-11T04:32:18;4.03;;;2.07;;
36817;SDS011;22761;51.542;16.450;2022-11-11T04:35:21;8.83;;;2.30;;
36817;SDS011;22761;51.542;16.450;2022-11-11T04:38:07;7.53;;;2.10;;
36817;SDS011;22761;51.542;16.450;2022-11-11T04:41:11;7.13;;;2.20;;
36817;SDS011;22761;51.542;16.450;2022-11-11T04:43:56;6.57;;;2.33;;
36817;SDS011;22761;51.542;16.450;2022-11-11T04:47:00;5.43;;;2.23;;
36817;SDS011;22761;51.542;16.450;2022-11-11T04:49:46;6.83;;;2.40;;
36817;SDS011;22761;51.542;16.450;2022-11-11T04:52:31;8.70;;;2.77;;
36817;SDS011;22761;51.542;16.450;2022-11-11T04:55:17;7.13;;;2.63;;
36817;SDS011;22761;51.542;16.450;2022-11-11T04:58:22;6.63;;;1.90;;
36817;SDS011;22761;51.542;16.450;2022-11-11T05:01:12;7.53;;;2.65;;
36817;SDS011;22761;51.542;16.450;2022-11-11T05:04:02;7.10;;;2.37;;
36817;SDS011;22761;51.542;16.450;2022-11-11T05:06:47;7.53;;;2.50;;
36817;SDS011;22761;51.542;16.450;2022-11-11T05:09:52;6.63;;;2.67;;
36817;SDS011;22761;51.542;16.450;2022-11-11T05:12:37;8.30;;;2.97;;
36817;SDS011;22761;51.542;16.450;2022-11-11T05:15:23;7.03;;;3.07;;
36817;SDS011;22761;51.542;16.450;2022-11-11T05:18:27;5.37;;;2.57;;
36817;SDS011;22761;51.542;16.450;2022-11-11T05:21:31;8.80;;;2.77;;
36817;SDS011;22761;51.542;16.450;2022-11-11T05:24:17;5.60;;;2.90;;
36817;SDS011;22761;51.542;16.450;2022-11-11T05:27:21;6.30;;;2.83;;
36817;SDS011;22761;51.542;16.450;2022-11-11T05:30:08;9.20;;;2.87;;
36817;SDS011;22761;51.542;16.450;2022-11-11T05:32:55;5.33;;;2.77;;
36817;SDS011;22761;51.542;16.450;2022-11-11T05:35:41;11.57;;;3.10;;
36817;SDS011;22761;51.542;16.450;2022-11-11T05:38:26;9.03;;;3.37;;
36817;SDS011;22761;51.542;16.450;2022-11-11T05:41:13;7.27;;;2.77;;
36817;SDS011;22761;51.542;16.450;2022-11-11T05:43:58;5.00;;;2.70;;
36817;SDS011;22761;51.542;16.450;2022-11-11T05:46:44;6.30;;;2.73;;
36817;SDS011;22761;51.542;16.450;2022-11-11T05:49:29;6.20;;;3.40;;
36817;SDS011;22761;51.542;16.450;2022-11-11T05:52:15;6.77;;;3.23;;
36817;SDS011;22761;51.542;16.450;2022-11-11T05:55:01;8.27;;;2.90;;
36817;SDS011;22761;51.542;16.450;2022-11-11T05:57:47;8.37;;;2.77;;
36817;SDS011;22761;51.542;16.450;2022-11-11T06:00:32;6.50;;;3.10;;
36817;SDS011;22761;51.542;16.450;2022-11-11T06:03:17;9.23;;;2.50;;
36817;SDS011;22761;51.542;16.450;2022-11-11T06:06:03;5.23;;;2.50;;
36817;SDS011;22761;51.542;16.450;2022-11-11T06:08:49;6.77;;;3.00;;
36817;SDS011;22761;51.542;16.450;2022-11-11T06:11:34;8.53;;;3.00;;
36817;SDS011;22761;51.542;16.450;2022-11-11T06:14:20;7.73;;;3.30;;
36817;SDS011;22761;51.542;16.450;2022-11-11T06:17:06;7.90;;;3.37;;
36817;SDS011;22761;51.542;16.450;2022-11-11T06:19:52;10.37;;;4.73;;
36817;SDS011;22761;51.542;16.450;2022-11-11T06:22:37;10.37;;;5.27;;
36817;SDS011;22761;51.542;16.450;2022-11-11T06:25:41;7.53;;;4.47;;
36817;SDS011;22761;51.542;16.450;2022-11-11T06:28:49;10.63;;;4.47;;
36817;SDS011;22761;51.542;16.450;2022-11-11T06:31:36;9.57;;;3.60;;
36817;SDS011;22761;51.542;16.450;2022-11-11T06:34:22;11.07;;;4.00;;
36817;SDS011;22761;51.542;16.450;2022-11-11T06:37:07;9.97;;;4.20;;
36817;SDS011;22761;51.542;16.450;2022-11-11T06:39:53;15.53;;;6.17;;
36817;SDS011;22761;51.542;16.450;2022-11-11T06:42:38;11.93;;;5.70;;
36817;SDS011;22761;51.542;16.450;2022-11-11T06:45:24;14.47;;;5.00;;
36817;SDS011;22761;51.542;16.450;2022-11-11T06:48:13;9.40;;;3.83;;
36817;SDS011;22761;51.542;16.450;2022-11-11T06:51:02;9.87;;;3.67;;
36817;SDS011;22761;51.542;16.450;2022-11-11T06:53:50;10.03;;;3.67;;
36817;SDS011;22761;51.542;16.450;2022-11-11T06:56:35;8.27;;;3.80;;
36817;SDS011;22761;51.542;16.450;2022-11-11T06:59:21;9.07;;;3.03;;
36817;SDS011;22761;51.542;16.450;2022-11-11T07:02:07;5.80;;;3.30;;
36817;SDS011;22761;51.542;16.450;2022-11-11T07:04:58;8.77;;;3.37;;
36817;SDS011;22761;51.542;16.450;2022-11-11T07:07:43;6.97;;;3.30;;
36817;SDS011;22761;51.542;16.450;2022-11-11T07:10:29;9.60;;;3.27;;
36817;SDS011;22761;51.542;16.450;2022-11-11T07:13:16;7.10;;;2.97;;
36817;SDS011;22761;51.542;16.450;2022-11-11T07:16:01;9.73;;;3.30;;
36817;SDS011;22761;51.542;16.450;2022-11-11T07:18:46;7.70;;;3.20;;
36817;SDS011;22761;51.542;16.450;2022-11-11T07:21:32;7.10;;;2.90;;
36817;SDS011;22761;51.542;16.450;2022-11-11T07:24:17;7.00;;;3.20;;
36817;SDS011;22761;51.542;16.450;2022-11-11T07:27:02;7.30;;;3.47;;
36817;SDS011;22761;51.542;16.450;2022-11-11T07:29:48;7.83;;;3.30;;
36817;SDS011;22761;51.542;16.450;2022-11-11T07:32:33;6.87;;;2.83;;
36817;SDS011;22761;51.542;16.450;2022-11-11T07:35:19;6.97;;;2.77;;
36817;SDS011;22761;51.542;16.450;2022-11-11T07:38:06;9.50;;;3.00;;
36817;SDS011;22761;51.542;16.450;2022-11-11T07:40:51;6.17;;;3.13;;
36817;SDS011;22761;51.542;16.450;2022-11-11T07:43:36;8.23;;;2.70;;
36817;SDS011;22761;51.542;16.450;2022-11-11T07:46:22;7.93;;;2.87;;
36817;SDS011;22761;51.542;16.450;2022-11-11T07:49:07;7.63;;;2.60;;
36817;SDS011;22761;51.542;16.450;2022-11-11T07:51:52;5.13;;;2.40;;
36817;SDS011;22761;51.542;16.450;2022-11-11T07:54:38;7.33;;;2.73;;
36817;SDS011;22761;51.542;16.450;2022-11-11T07:57:23;13.37;;;4.27;;
36817;SDS011;22761;51.542;16.450;2022-11-11T08:00:09;13.10;;;6.47;;
36817;SDS011;22761;51.542;16.450;2022-11-11T08:02:56;8.17;;;2.70;;
36817;SDS011;22761;51.542;16.450;2022-11-11T08:05:41;7.57;;;2.80;;
36817;SDS011;22761;51.542;16.450;2022-11-11T08:08:27;7.47;;;2.47;;
36817;SDS011;22761;51.542;16.450;2022-11-11T08:11:12;6.90;;;2.87;;
36817;SDS011;22761;51.542;16.450;2022-11-11T08:13:58;7.73;;;2.67;;
36817;SDS011;22761;51.542;16.450;2022-11-11T08:16:44;8.67;;;2.70;;
36817;SDS011;22761;51.542;16.450;2022-11-11T08:19:30;7.97;;;2.90;;
36817;SDS011;22761;51.542;16.450;2022-11-11T08:22:15;7.07;;;3.33;;
36817;SDS011;22761;51.542;16.450;2022-11-11T08:25:01;7.47;;;2.90;;
36817;SDS011;22761;51.542;16.450;2022-11-11T08:27:47;6.80;;;3.10;;
36817;SDS011;22761;51.542;16.450;2022-11-11T08:30:32;6.73;;;2.73;;
36817;SDS011;22761;51.542;16.450;2022-11-11T08:33:17;10.50;;;3.20;;
36817;SDS011;22761;51.542;16.450;2022-11-11T08:36:03;6.20;;;2.60;;
36817;SDS011;22761;51.542;16.450;2022-11-11T08:38:51;6.50;;;2.70;;
36817;SDS011;22761;51.542;16.450;2022-11-11T08:41:37;6.27;;;2.57;;
36817;SDS011;22761;51.542;16.450;2022-11-11T08:44:22;7.93;;;3.00;;
36817;SDS011;22761;51.542;16.450;2022-11-11T08:47:08;6.47;;;2.77;;
36817;SDS011;22761;51.542;16.450;2022-11-11T08:49:54;6.90;;;2.90;;
36817;SDS011;22761;51.542;16.450;2022-11-11T08:52:44;7.13;;;2.73;;
36817;SDS011;22761;51.542;16.450;2022-11-11T08:55:32;7.50;;;2.93;;
36817;SDS011;22761;51.542;16.450;2022-11-11T08:58:18;6.97;;;2.90;;
36817;SDS011;22761;51.542;16.450;2022-11-11T09:01:03;8.00;;;2.83;;
36817;SDS011;22761;51.542;16.450;2022-11-11T09:03:54;8.20;;;3.00;;
36817;SDS011;22761;51.542;16.450;2022-11-11T09:06:39;6.47;;;2.80;;
36817;SDS011;22761;51.542;16.450;2022-11-11T09:09:26;5.55;;;2.08;;
36817;SDS011;22761;51.542;16.450;2022-11-11T09:12:12;8.03;;;2.30;;
36817;SDS011;22761;51.542;16.450;2022-11-11T09:14:57;3.62;;;1.75;;
36817;SDS011;22761;51.542;16.450;2022-11-11T09:17:47;6.55;;;1.70;;
36817;SDS011;22761;51.542;16.450;2022-11-11T09:20:32;3.77;;;1.25;;
36817;SDS011;22761;51.542;16.450;2022-11-11T09:23:18;5.70;;;1.30;;
36817;SDS011;22761;51.542;16.450;2022-11-11T09:26:03;3.60;;;1.30;;
36817;SDS011;22761;51.542;16.450;2022-11-11T09:28:49;3.55;;;1.40;;
36817;SDS011;22761;51.542;16.450;2022-11-11T09:31:35;4.37;;;1.40;;
36817;SDS011;22761;51.542;16.450;2022-11-11T09:34:21;7.70;;;1.60;;
36817;SDS011;22761;51.542;16.450;2022-11-11T09:37:07;4.80;;;1.52;;
36817;SDS011;22761;51.542;16.450;2022-11-11T09:39:52;3.70;;;1.45;;
36817;SDS011;22761;51.542;16.450;2022-11-11T09:42:40;5.05;;;1.72;;
36817;SDS011;22761;51.542;16.450;2022-11-11T09:45:41;6.72;;;1.67;;
36817;SDS011;22761;51.542;16.450;2022-11-11T09:55:17;5.03;;;1.70;;
36817;SDS011;22761;51.542;16.450;2022-11-11T09:58:22;5.30;;;1.92;;
36817;SDS011;22761;51.542;16.450;2022-11-11T10:01:27;2.72;;;1.35;;
36817;SDS011;22761;51.542;16.450;2022-11-11T10:04:19;5.83;;;2.17;;
36817;SDS011;22761;51.542;16.450;2022-11-11T10:07:27;4.78;;;1.45;;
36817;SDS011;22761;51.542;16.450;2022-11-11T10:13:35;6.75;;;2.35;;
36817;SDS011;22761;51.542;16.450;2022-11-11T10:16:33;4.28;;;1.67;;
36817;SDS011;22761;51.542;16.450;2022-11-11T10:20:27;5.33;;;1.60;;
36817;SDS011;22761;51.542;16.450;2022-11-11T10:26:05;3.67;;;1.45;;
36817;SDS011;22761;51.542;16.450;2022-11-11T10:28:53;3.92;;;1.65;;
36817;SDS011;22761;51.542;16.450;2022-11-11T10:31:38;4.28;;;1.30;;
36817;SDS011;22761;51.542;16.450;2022-11-11T10:34:27;4.20;;;1.42;;
36817;SDS011;22761;51.542;16.450;2022-11-11T10:37:26;5.45;;;1.55;;
36817;SDS011;22761;51.542;16.450;2022-11-11T10:40:20;4.72;;;1.40;;
36817;SDS011;22761;51.542;16.450;2022-11-11T10:43:15;5.15;;;1.65;;
36817;SDS011;22761;51.542;16.450;2022-11-11T10:46:20;3.45;;;1.50;;
36817;SDS011;22761;51.542;16.450;2022-11-11T10:49:17;4.92;;;1.72;;
36817;SDS011;22761;51.542;16.450;2022-11-11T10:52:29;5.65;;;1.27;;
36817;SDS011;22761;51.542;16.450;2022-11-11T10:55:08;5.40;;;1.60;;
36817;SDS011;22761;51.542;16.450;2022-11-11T10:58:21;6.22;;;1.50;;
36817;SDS011;22761;51.542;16.450;2022-11-11T11:01:14;2.50;;;1.30;;
36817;SDS011;22761;51.542;16.450;2022-11-11T11:04:04;5.83;;;1.37;;
36817;SDS011;22761;51.542;16.450;2022-11-11T11:07:01;5.37;;;1.60;;
36817;SDS011;22761;51.542;16.450;2022-11-11T11:09:57;2.65;;;1.27;;
36817;SDS011;22761;51.542;16.450;2022-11-11T11:15:54;5.35;;;1.62;;
36817;SDS011;22761;51.542;16.450;2022-11-11T11:21:30;2.67;;;1.32;;
36817;SDS011;22761;51.542;16.450;2022-11-11T11:24:22;3.10;;;1.37;;
36817;SDS011;22761;51.542;16.450;2022-11-11T11:27:09;4.83;;;1.35;;
36817;SDS011;22761;51.542;16.450;2022-11-11T11:29:54;2.98;;;1.17;;
36817;SDS011;22761;51.542;16.450;2022-11-11T11:35:47;3.80;;;1.40;;
36817;SDS011;22761;51.542;16.450;2022-11-11T11:38:54;3.67;;;1.50;;
36817;SDS011;22761;51.542;16.450;2022-11-11T11:41:51;4.67;;;1.47;;
36817;SDS011;22761;51.542;16.450;2022-11-11T11:44:34;7.12;;;2.05;;
36817;SDS011;22761;51.542;16.450;2022-11-11T11:50:36;4.08;;;1.47;;
36817;SDS011;22761;51.542;16.450;2022-11-11T11:53:39;6.92;;;1.62;;
36817;SDS011;22761;51.542;16.450;2022-11-11T11:56:44;3.42;;;1.17;;
36817;SDS011;22761;51.542;16.450;2022-11-11T11:59:42;3.98;;;1.17;;
36817;SDS011;22761;51.542;16.450;2022-11-11T12:05:25;2.72;;;1.15;;
36817;SDS011;22761;51.542;16.450;2022-11-11T12:41:03;3.60;;;1.40;;
36817;SDS011;22761;51.542;16.450;2022-11-11T12:47:01;3.67;;;1.30;;
36817;SDS011;22761;51.542;16.450;2022-11-11T12:53:17;4.10;;;1.20;;
36817;SDS011;22761;51.542;16.450;2022-11-11T12:59:26;4.67;;;1.30;;
36817;SDS011;22761;51.542;16.450;2022-11-11T13:02:37;2.25;;;1.22;;
36817;SDS011;22761;51.542;16.450;2022-11-11T13:15:37;3.50;;;1.60;;
36817;SDS011;22761;51.542;16.450;2022-11-11T13:18:27;3.85;;;1.30;;
36817;SDS011;22761;51.542;16.450;2022-11-11T13:24:49;5.70;;;1.72;;
36817;SDS011;22761;51.542;16.450;2022-11-11T13:33:46;2.60;;;1.22;;
36817;SDS011;22761;51.542;16.450;2022-11-11T13:36:45;3.42;;;1.30;;
36817;SDS011;22761;51.542;16.450;2022-11-11T13:39:31;3.33;;;1.15;;
36817;SDS011;22761;51.542;16.450;2022-11-11T13:42:40;2.90;;;1.32;;
36817;SDS011;22761;51.542;16.450;2022-11-11T13:45:34;5.15;;;1.75;;
36817;SDS011;22761;51.542;16.450;2022-11-11T13:54:28;4.08;;;1.47;;
36817;SDS011;22761;51.542;16.450;2022-11-11T13:57:20;4.55;;;1.62;;
36817;SDS011;22761;51.542;16.450;2022-11-11T14:09:04;3.83;;;1.47;;
36817;SDS011;22761;51.542;16.450;2022-11-11T14:11:51;3.52;;;1.67;;
36817;SDS011;22761;51.542;16.450;2022-11-11T14:14:58;2.58;;;1.40;;
36817;SDS011;22761;51.542;16.450;2022-11-11T14:17:44;4.42;;;1.70;;
36817;SDS011;22761;51.542;16.450;2022-11-11T14:23:34;5.58;;;2.20;;
36817;SDS011;22761;51.542;16.450;2022-11-11T14:26:27;4.08;;;1.45;;
36817;SDS011;22761;51.542;16.450;2022-11-11T14:29:17;4.10;;;1.80;;
36817;SDS011;22761;51.542;16.450;2022-11-11T14:32:13;4.08;;;1.75;;
36817;SDS011;22761;51.542;16.450;2022-11-11T14:35:43;4.55;;;1.62;;
36817;SDS011;22761;51.542;16.450;2022-11-11T14:41:59;5.78;;;1.75;;
36817;SDS011;22761;51.542;16.450;2022-11-11T14:44:45;4.83;;;1.90;;
36817;SDS011;22761;51.542;16.450;2022-11-11T14:47:32;3.70;;;1.87;;
36817;SDS011;22761;51.542;16.450;2022-11-11T14:53:24;4.37;;;1.90;;
36817;SDS011;22761;51.542;16.450;2022-11-11T14:56:16;4.08;;;1.77;;
36817;SDS011;22761;51.542;16.450;2022-11-11T14:59:04;7.97;;;1.82;;
36817;SDS011;22761;51.542;16.450;2022-11-11T15:01:56;3.25;;;1.65;;
36817;SDS011;22761;51.542;16.450;2022-11-11T15:04:39;4.87;;;2.05;;
36817;SDS011;22761;51.542;16.450;2022-11-11T15:10:30;4.58;;;1.67;;
36817;SDS011;22761;51.542;16.450;2022-11-11T15:13:27;4.20;;;1.57;;
36817;SDS011;22761;51.542;16.450;2022-11-11T15:16:28;4.60;;;1.50;;
36817;SDS011;22761;51.542;16.450;2022-11-11T15:19:29;4.05;;;1.80;;
36817;SDS011;22761;51.542;16.450;2022-11-11T15:38:14;5.08;;;2.52;;
36817;SDS011;22761;51.542;16.450;2022-11-11T15:41:03;7.67;;;2.58;;
36817;SDS011;22761;51.542;16.450;2022-11-11T15:43:49;5.80;;;2.83;;
36817;SDS011;22761;51.542;16.450;2022-11-11T15:46:37;4.65;;;2.10;;
36817;SDS011;22761;51.542;16.450;2022-11-11T15:49:39;6.10;;;2.90;;
36817;SDS011;22761;51.542;16.450;2022-11-11T15:52:33;4.85;;;2.95;;
36817;SDS011;22761;51.542;16.450;2022-11-11T15:55:25;4.35;;;2.65;;
36817;SDS011;22761;51.542;16.450;2022-11-11T15:58:17;6.10;;;2.72;;
36817;SDS011;22761;51.542;16.450;2022-11-11T16:01:25;5.45;;;3.05;;
36817;SDS011;22761;51.542;16.450;2022-11-11T16:04:21;4.85;;;2.90;;
36817;SDS011;22761;51.542;16.450;2022-11-11T16:07:18;8.20;;;2.87;;
36817;SDS011;22761;51.542;16.450;2022-11-11T16:13:18;6.08;;;2.67;;
36817;SDS011;22761;51.542;16.450;2022-11-11T16:16:18;5.85;;;2.62;;
36817;SDS011;22761;51.542;16.450;2022-11-11T16:22:24;4.87;;;2.67;;
36817;SDS011;22761;51.542;16.450;2022-11-11T16:25:17;4.78;;;2.58;;
36817;SDS011;22761;51.542;16.450;2022-11-11T16:28:05;5.92;;;3.12;;
36817;SDS011;22761;51.542;16.450;2022-11-11T16:30:55;6.08;;;2.50;;
36817;SDS011;22761;51.542;16.450;2022-11-11T16:33:40;8.93;;;4.10;;
36817;SDS011;22761;51.542;16.450;2022-11-11T16:36:26;4.83;;;2.37;;
36817;SDS011;22761;51.542;16.450;2022-11-11T16:39:19;7.90;;;3.10;;
36817;SDS011;22761;51.542;16.450;2022-11-11T16:42:24;3.90;;;2.23;;
36817;SDS011;22761;51.542;16.450;2022-11-11T16:45:19;5.13;;;2.53;;
36817;SDS011;22761;51.542;16.450;2022-11-11T16:51:22;7.67;;;3.00;;
36817;SDS011;22761;51.542;16.450;2022-11-11T16:54:21;4.55;;;2.33;;
36817;SDS011;22761;51.542;16.450;2022-11-11T16:57:06;4.57;;;1.93;;
36817;SDS011;22761;51.542;16.450;2022-11-11T16:59:52;4.43;;;2.40;;
36817;SDS011;22761;51.542;16.450;2022-11-11T17:02:40;3.45;;;2.10;;
36817;SDS011;22761;51.542;16.450;2022-11-11T17:08:41;6.70;;;2.07;;
36817;SDS011;22761;51.542;16.450;2022-11-11T17:14:29;4.13;;;2.10;;
36817;SDS011;22761;51.542;16.450;2022-11-11T17:17:17;5.60;;;2.33;;
36817;SDS011;22761;51.542;16.450;2022-11-11T17:20:07;3.47;;;1.37;;
36817;SDS011;22761;51.542;16.450;2022-11-11T17:22:59;4.57;;;2.13;;
36817;SDS011;22761;51.542;16.450;2022-11-11T17:25:47;4.30;;;2.20;;
36817;SDS011;22761;51.542;16.450;2022-11-11T17:28:33;4.15;;;2.27;;
36817;SDS011;22761;51.542;16.450;2022-11-11T17:31:20;6.33;;;2.60;;
36817;SDS011;22761;51.542;16.450;2022-11-11T17:34:07;6.40;;;2.83;;
36817;SDS011;22761;51.542;16.450;2022-11-11T17:36:54;4.97;;;2.27;;
36817;SDS011;22761;51.542;16.450;2022-11-11T17:39:40;7.42;;;3.12;;
36817;SDS011;22761;51.542;16.450;2022-11-11T17:42:30;6.50;;;2.67;;
36817;SDS011;22761;51.542;16.450;2022-11-11T17:45:18;5.12;;;2.50;;
36817;SDS011;22761;51.542;16.450;2022-11-11T17:48:04;6.20;;;2.37;;
36817;SDS011;22761;51.542;16.450;2022-11-11T17:50:53;9.68;;;2.67;;
36817;SDS011;22761;51.542;16.450;2022-11-11T17:53:40;4.50;;;1.92;;
36817;SDS011;22761;51.542;16.450;2022-11-11T17:56:25;7.40;;;2.60;;
36817;SDS011;22761;51.542;16.450;2022-11-11T17:59:11;6.33;;;2.58;;
36817;SDS011;22761;51.542;16.450;2022-11-11T18:01:56;5.08;;;2.42;;
36817;SDS011;22761;51.542;16.450;2022-11-11T18:04:42;6.33;;;2.52;;
36817;SDS011;22761;51.542;16.450;2022-11-11T18:07:37;5.67;;;2.62;;
36817;SDS011;22761;51.542;16.450;2022-11-11T18:10:23;4.33;;;2.27;;
36817;SDS011;22761;51.542;16.450;2022-11-11T18:13:09;6.22;;;2.02;;
36817;SDS011;22761;51.542;16.450;2022-11-11T18:15:56;6.40;;;2.65;;
36817;SDS011;22761;51.542;16.450;2022-11-11T18:18:43;5.97;;;2.50;;
36817;SDS011;22761;51.542;16.450;2022-11-11T18:21:30;7.37;;;2.77;;
36817;SDS011;22761;51.542;16.450;2022-11-11T18:24:16;4.20;;;2.17;;
36817;SDS011;22761;51.542;16.450;2022-11-11T18:27:04;4.20;;;2.40;;
36817;SDS011;22761;51.542;16.450;2022-11-11T18:29:50;5.30;;;2.15;;
36817;SDS011;22761;51.542;16.450;2022-11-11T18:32:39;4.62;;;2.10;;
36817;SDS011;22761;51.542;16.450;2022-11-11T18:35:28;3.77;;;1.60;;
36817;SDS011;22761;51.542;16.450;2022-11-11T18:38:17;3.45;;;2.05;;
36817;SDS011;22761;51.542;16.450;2022-11-11T18:41:04;3.92;;;2.00;;
36817;SDS011;22761;51.542;16.450;2022-11-11T18:43:59;5.42;;;2.05;;
36817;SDS011;22761;51.542;16.450;2022-11-11T18:46:45;6.75;;;2.20;;
36817;SDS011;22761;51.542;16.450;2022-11-11T18:49:32;11.22;;;4.58;;
36817;SDS011;22761;51.542;16.450;2022-11-11T18:52:18;13.03;;;4.62;;
36817;SDS011;22761;51.542;16.450;2022-11-11T18:55:05;27.73;;;9.58;;
36817;SDS011;22761;51.542;16.450;2022-11-11T18:57:53;35.45;;;13.03;;
36817;SDS011;22761;51.542;16.450;2022-11-11T19:00:39;17.25;;;5.15;;
36817;SDS011;22761;51.542;16.450;2022-11-11T19:03:25;52.88;;;27.75;;
36817;SDS011;22761;51.542;16.450;2022-11-11T19:06:11;28.42;;;17.05;;
36817;SDS011;22761;51.542;16.450;2022-11-11T19:08:58;7.67;;;4.12;;
36817;SDS011;22761;51.542;16.450;2022-11-11T19:11:49;7.05;;;3.10;;
36817;SDS011;22761;51.542;16.450;2022-11-11T19:14:35;9.23;;;3.85;;
36817;SDS011;22761;51.542;16.450;2022-11-11T19:17:21;4.70;;;2.30;;
36817;SDS011;22761;51.542;16.450;2022-11-11T19:20:07;6.27;;;2.30;;
36817;SDS011;22761;51.542;16.450;2022-11-11T19:22:54;4.12;;;2.25;;